createdAt,value
2022-08-19T00:00:01.965Z,19.03
2022-08-19T00:01:02.004Z,19.01
2022-08-19T00:02:02.700Z,19.00
2022-08-19T00:03:02.577Z,18.99
2022-08-19T00:04:03.217Z,18.98
2022-08-19T00:05:03.073Z,18.97
2022-08-19T00:06:03.069Z,18.97
2022-08-19T00:07:02.488Z,18.97
2022-08-19T00:08:02.477Z,18.95
2022-08-19T00:09:02.412Z,18.95
2022-08-19T00:10:02.539Z,18.93
2022-08-19T00:11:02.471Z,18.93
2022-08-19T00:12:02.807Z,18.92
2022-08-19T00:13:02.527Z,18.90
2022-08-19T00:14:02.856Z,18.90
2022-08-19T00:15:02.784Z,18.88
2022-08-19T00:16:02.820Z,18.87
2022-08-19T00:17:02.770Z,18.88
2022-08-19T00:18:02.751Z,18.88
2022-08-19T00:19:02.973Z,18.85
2022-08-19T00:20:02.929Z,18.81
2022-08-19T00:21:02.816Z,18.79
2022-08-19T00:22:02.510Z,18.76
2022-08-19T00:23:02.486Z,18.76
2022-08-19T00:24:02.549Z,18.72
2022-08-19T00:25:02.420Z,18.72
2022-08-19T00:26:02.661Z,18.72
2022-08-19T00:27:04.924Z,18.72
2022-08-19T00:28:02.905Z,18.71
2022-08-19T00:29:02.707Z,18.70
2022-08-19T00:30:02.765Z,18.69
2022-08-19T00:31:03.128Z,18.69
2022-08-19T00:32:02.876Z,18.69
2022-08-19T00:33:02.869Z,18.69
2022-08-19T00:34:02.818Z,18.68
2022-08-19T00:35:02.808Z,18.70
2022-08-19T00:36:02.759Z,18.70
2022-08-19T00:37:02.570Z,18.68
2022-08-19T00:38:02.545Z,18.67
2022-08-19T00:39:02.681Z,18.68
2022-08-19T00:40:02.651Z,18.67
2022-08-19T00:41:02.719Z,18.64
2022-08-19T00:42:02.575Z,18.62
2022-08-19T00:43:02.564Z,18.61
2022-08-19T00:44:02.548Z,18.62
2022-08-19T00:45:02.509Z,18.60
2022-08-19T00:46:02.501Z,18.61
2022-08-19T00:47:03.216Z,18.61
2022-08-19T00:48:03.459Z,18.60
2022-08-19T00:49:02.955Z,18.59
2022-08-19T00:50:03.606Z,18.57
2022-08-19T00:51:03.232Z,18.57
2022-08-19T00:52:03.235Z,18.55
2022-08-19T00:53:03.249Z,18.52
2022-08-19T00:54:03.241Z,18.51
2022-08-19T00:55:03.224Z,18.50
2022-08-19T00:56:03.185Z,18.50
2022-08-19T00:57:02.915Z,18.50
2022-08-19T00:58:02.889Z,18.49
2022-08-19T00:59:02.732Z,18.47
2022-08-19T01:00:03.233Z,18.45
2022-08-19T01:01:02.809Z,18.45
2022-08-19T01:02:02.634Z,18.43
2022-08-19T01:03:02.672Z,18.43
2022-08-19T01:04:02.194Z,18.44
2022-08-19T01:05:02.824Z,18.46
2022-08-19T01:06:02.237Z,18.42
2022-08-19T01:07:01.863Z,18.41
2022-08-19T01:08:01.911Z,18.38
2022-08-19T01:09:02.022Z,18.35
2022-08-19T01:10:01.698Z,18.35
2022-08-19T01:11:01.713Z,18.36
2022-08-19T01:12:02.420Z,18.40
2022-08-19T01:13:02.300Z,18.40
2022-08-19T01:14:02.205Z,18.40
2022-08-19T01:15:02.557Z,18.41
2022-08-19T01:16:02.591Z,18.40
2022-08-19T01:17:01.735Z,18.39
2022-08-19T01:18:01.701Z,18.36
2022-08-19T01:19:01.678Z,18.37
2022-08-19T01:20:01.649Z,18.34
2022-08-19T01:21:02.306Z,18.33
2022-08-19T01:22:13.052Z,18.32
2022-08-19T01:23:02.296Z,18.31
2022-08-19T01:24:02.783Z,18.34
2022-08-19T01:25:02.491Z,18.32
2022-08-19T01:26:02.516Z,18.30
2022-08-19T01:27:02.237Z,18.29
2022-08-19T01:28:11.197Z,18.26
2022-08-19T01:29:02.238Z,18.24
2022-08-19T01:30:02.203Z,18.23
2022-08-19T01:31:07.898Z,18.21
2022-08-19T01:32:02.870Z,18.20
2022-08-19T01:33:02.425Z,18.18
2022-08-19T01:34:02.806Z,18.17
2022-08-19T01:35:02.752Z,18.17
2022-08-19T01:36:02.423Z,18.19
2022-08-19T01:37:02.547Z,18.16
2022-08-19T01:38:02.564Z,18.15
2022-08-19T01:39:02.157Z,18.14
2022-08-19T01:40:06.339Z,18.11
2022-08-19T01:41:02.470Z,18.09
2022-08-19T01:42:03.168Z,18.07
2022-08-19T01:43:03.161Z,18.06
2022-08-19T01:44:13.303Z,18.04
2022-08-19T01:45:02.999Z,18.02
2022-08-19T01:46:02.685Z,17.99
2022-08-19T01:47:01.823Z,17.95
2022-08-19T01:48:02.658Z,17.92
2022-08-19T01:49:02.412Z,17.90
2022-08-19T01:50:01.876Z,17.89
2022-08-19T01:51:02.369Z,17.86
2022-08-19T01:52:03.116Z,17.86
2022-08-19T01:53:06.852Z,17.86
2022-08-19T01:54:02.960Z,17.89
2022-08-19T01:55:03.097Z,17.92
2022-08-19T01:56:02.953Z,17.94
2022-08-19T01:57:02.036Z,17.97
2022-08-19T01:58:02.023Z,17.99
2022-08-19T01:59:02.075Z,17.99
2022-08-19T02:00:02.651Z,18.00
2022-08-19T02:01:02.506Z,18.02
2022-08-19T02:02:02.116Z,18.04
2022-08-19T02:03:01.770Z,18.06
2022-08-19T02:04:01.828Z,18.06
2022-08-19T02:05:01.849Z,18.06
2022-08-19T02:06:01.734Z,18.05
2022-08-19T02:07:02.316Z,18.07
2022-08-19T02:08:01.892Z,18.06
2022-08-19T02:09:01.878Z,18.07
2022-08-19T02:10:04.558Z,18.05
2022-08-19T02:11:02.076Z,18.06
2022-08-19T02:12:02.030Z,18.03
2022-08-19T02:13:02.650Z,18.02
2022-08-19T02:14:02.664Z,18.01
2022-08-19T02:15:02.147Z,17.99
2022-08-19T02:16:04.478Z,17.99
2022-08-19T02:17:02.052Z,17.98
2022-08-19T02:18:02.200Z,17.97
2022-08-19T02:19:02.183Z,17.96
2022-08-19T02:20:02.118Z,17.95
2022-08-19T02:21:02.088Z,17.95
2022-08-19T02:22:02.643Z,17.94
2022-08-19T02:23:02.658Z,17.95
2022-08-19T02:24:02.654Z,17.94
2022-08-19T02:25:02.422Z,17.92
2022-08-19T02:26:02.418Z,17.90
2022-08-19T02:27:02.089Z,17.87
2022-08-19T02:28:02.391Z,17.85
2022-08-19T02:29:02.416Z,17.83
2022-08-19T02:30:02.394Z,17.82
2022-08-19T02:31:02.368Z,17.79
2022-08-19T02:32:02.806Z,17.78
2022-08-19T02:33:02.826Z,17.78
2022-08-19T02:34:02.542Z,17.77
2022-08-19T02:35:02.520Z,17.77
2022-08-19T02:36:02.541Z,17.77
2022-08-19T02:37:03.866Z,17.77
2022-08-19T02:38:02.441Z,17.75
2022-08-19T02:39:02.939Z,17.76
2022-08-19T02:40:02.947Z,17.76
2022-08-19T02:41:02.894Z,17.75
2022-08-19T02:42:01.946Z,17.75
2022-08-19T02:43:02.063Z,17.73
2022-08-19T02:44:26.394Z,17.70
2022-08-19T02:45:01.927Z,17.69
2022-08-19T02:46:01.893Z,17.68
2022-08-19T02:47:02.764Z,17.65
2022-08-19T02:48:03.428Z,17.64
2022-08-19T02:49:02.809Z,17.65
2022-08-19T02:50:02.607Z,17.65
2022-08-19T02:51:02.574Z,17.65
2022-08-19T02:52:02.038Z,17.62
2022-08-19T02:53:02.412Z,17.62
2022-08-19T02:54:02.219Z,17.61
2022-08-19T02:55:02.228Z,17.61
2022-08-19T02:56:02.210Z,17.61
2022-08-19T02:57:02.193Z,17.60
2022-08-19T02:58:02.062Z,17.59
2022-08-19T02:59:02.490Z,17.59
2022-08-19T03:00:02.106Z,17.58
2022-08-19T03:01:02.460Z,17.58
2022-08-19T03:02:02.485Z,17.58
2022-08-19T03:03:02.647Z,17.57
2022-08-19T03:04:02.721Z,17.57
2022-08-19T03:05:02.647Z,17.58
2022-08-19T03:06:02.671Z,17.56
2022-08-19T03:07:07.163Z,17.57
2022-08-19T03:08:02.651Z,17.56
2022-08-19T03:09:02.622Z,17.54
2022-08-19T03:10:02.608Z,17.54
2022-08-19T03:11:02.822Z,17.54
2022-08-19T03:12:02.814Z,17.54
2022-08-19T03:13:02.804Z,17.54
2022-08-19T03:14:02.864Z,17.55
2022-08-19T03:15:02.849Z,17.55
2022-08-19T03:16:02.976Z,17.55
2022-08-19T03:17:02.070Z,17.55
2022-08-19T03:18:02.296Z,17.55
2022-08-19T03:19:01.951Z,17.55
2022-08-19T03:20:02.003Z,17.54
2022-08-19T03:21:02.358Z,17.54
2022-08-19T03:22:02.361Z,17.54
2022-08-19T03:23:02.315Z,17.52
2022-08-19T03:24:02.339Z,17.48
2022-08-19T03:25:02.115Z,17.47
2022-08-19T03:26:16.082Z,17.43
2022-08-19T03:27:02.422Z,17.40
2022-08-19T03:28:02.404Z,17.39
2022-08-19T03:29:02.345Z,17.36
2022-08-19T03:30:02.436Z,17.33
2022-08-19T03:31:02.820Z,17.34
2022-08-19T03:32:04.631Z,17.34
2022-08-19T03:33:02.476Z,17.33
2022-08-19T03:34:02.451Z,17.36
2022-08-19T03:35:02.514Z,17.36
2022-08-19T03:36:02.496Z,17.36
2022-08-19T03:37:02.896Z,17.36
2022-08-19T03:38:02.891Z,17.39
2022-08-19T03:39:02.898Z,17.39
2022-08-19T03:40:03.009Z,17.41
2022-08-19T03:41:02.932Z,17.42
2022-08-19T03:42:29.285Z,17.43
2022-08-19T03:43:03.496Z,17.44
2022-08-19T03:44:03.010Z,17.46
2022-08-19T03:45:03.094Z,17.43
2022-08-19T03:46:03.065Z,17.41
2022-08-19T03:47:03.396Z,17.38
2022-08-19T03:48:03.105Z,17.38
2022-08-19T03:49:03.055Z,17.37
2022-08-19T03:50:03.337Z,17.39
2022-08-19T03:51:02.844Z,17.38
2022-08-19T03:52:02.564Z,17.39
2022-08-19T03:53:02.761Z,17.38
2022-08-19T03:54:02.704Z,17.39
2022-08-19T03:55:02.555Z,17.37
2022-08-19T03:56:02.537Z,17.35
2022-08-19T03:57:03.203Z,17.33
2022-08-19T03:58:03.575Z,17.31
2022-08-19T03:59:03.263Z,17.29
2022-08-19T04:00:06.846Z,17.28
2022-08-19T04:01:03.536Z,17.26
2022-08-19T04:02:02.550Z,17.26
2022-08-19T04:03:02.721Z,17.24
2022-08-19T04:04:03.348Z,17.22
2022-08-19T04:05:02.611Z,17.20
2022-08-19T04:06:02.699Z,17.18
2022-08-19T04:07:02.396Z,17.18
2022-08-19T04:08:02.446Z,17.18
2022-08-19T04:09:02.316Z,17.16
2022-08-19T04:10:02.988Z,17.15
2022-08-19T04:11:03.010Z,17.14
2022-08-19T04:12:02.768Z,17.12
2022-08-19T04:13:02.825Z,17.11
2022-08-19T04:14:02.796Z,17.09
2022-08-19T04:15:02.927Z,17.07
2022-08-19T04:16:02.749Z,17.06
2022-08-19T04:17:02.503Z,17.05
2022-08-19T04:18:02.568Z,17.04
2022-08-19T04:19:02.048Z,17.03
2022-08-19T04:20:02.320Z,17.04
2022-08-19T04:21:02.390Z,17.04
2022-08-19T04:22:03.109Z,17.02
2022-08-19T04:23:02.764Z,17.01
2022-08-19T04:24:03.947Z,17.01
2022-08-19T04:25:03.076Z,17.01
2022-08-19T04:26:03.147Z,16.98
2022-08-19T04:27:03.397Z,16.94
2022-08-19T04:28:03.200Z,16.91
2022-08-19T04:29:03.287Z,16.91
2022-08-19T04:30:03.303Z,16.89
2022-08-19T04:31:03.325Z,16.90
2022-08-19T04:32:08.533Z,16.89
2022-08-19T04:33:02.902Z,16.89
2022-08-19T04:34:02.947Z,16.89
2022-08-19T04:35:16.757Z,16.88
2022-08-19T04:36:03.100Z,16.91
2022-08-19T04:37:02.897Z,16.89
2022-08-19T04:38:02.915Z,16.89
2022-08-19T04:39:02.987Z,16.86
2022-08-19T04:40:02.878Z,16.84
2022-08-19T04:41:02.822Z,16.79
2022-08-19T04:42:03.600Z,16.77
2022-08-19T04:43:03.255Z,16.75
2022-08-19T04:44:04.535Z,16.73
2022-08-19T04:45:03.409Z,16.75
2022-08-19T04:46:03.389Z,16.76
2022-08-19T04:47:03.274Z,16.78
2022-08-19T04:48:27.386Z,16.80
2022-08-19T04:49:13.248Z,16.80
2022-08-19T04:50:02.989Z,16.78
2022-08-19T04:51:03.040Z,16.75
2022-08-19T04:52:02.844Z,16.74
2022-08-19T04:53:02.510Z,16.73
2022-08-19T04:54:02.343Z,16.71
2022-08-19T04:55:02.567Z,16.72
2022-08-19T04:56:02.668Z,16.75
2022-08-19T04:57:02.793Z,16.74
2022-08-19T04:58:03.010Z,16.74
2022-08-19T04:59:03.105Z,16.73
2022-08-19T05:00:03.068Z,16.72
2022-08-19T05:01:03.228Z,16.72
2022-08-19T05:02:02.629Z,16.71
2022-08-19T05:03:02.880Z,16.69
2022-08-19T05:04:02.620Z,16.72
2022-08-19T05:05:02.735Z,16.72
2022-08-19T05:06:02.915Z,16.75
2022-08-19T05:07:03.025Z,16.76
2022-08-19T05:08:03.209Z,16.78
2022-08-19T05:09:03.248Z,16.78
2022-08-19T05:10:03.374Z,16.79
2022-08-19T05:11:03.458Z,16.78
2022-08-19T05:12:02.606Z,16.77
2022-08-19T05:13:02.856Z,16.77
2022-08-19T05:14:02.554Z,16.77
2022-08-19T05:15:02.863Z,16.77
2022-08-19T05:16:02.584Z,16.75
2022-08-19T05:17:25.988Z,16.75
2022-08-19T05:18:02.803Z,16.77
2022-08-19T05:19:02.750Z,16.77
2022-08-19T05:20:02.730Z,16.78
2022-08-19T05:21:02.957Z,16.77
2022-08-19T05:22:03.217Z,16.75
2022-08-19T05:23:03.502Z,16.76
2022-08-19T05:24:03.179Z,16.76
2022-08-19T05:25:12.592Z,16.77
2022-08-19T05:26:03.502Z,16.77
2022-08-19T05:27:02.680Z,16.77
2022-08-19T05:28:02.823Z,16.77
2022-08-19T05:29:03.053Z,16.77
2022-08-19T05:30:02.651Z,16.79
2022-08-19T05:31:02.880Z,16.80
2022-08-19T05:32:03.092Z,16.79
2022-08-19T05:33:03.414Z,16.81
2022-08-19T05:34:03.498Z,16.81
2022-08-19T05:35:03.376Z,16.83
2022-08-19T05:36:03.360Z,16.85
2022-08-19T05:37:03.483Z,16.87
2022-08-19T05:38:03.844Z,16.90
2022-08-19T05:39:03.875Z,16.92
2022-08-19T05:40:03.621Z,16.93
2022-08-19T05:41:03.953Z,16.96
2022-08-19T05:42:03.209Z,16.97
2022-08-19T05:43:03.425Z,16.98
2022-08-19T05:44:03.481Z,16.98
2022-08-19T05:45:03.527Z,17.00
2022-08-19T05:46:03.865Z,17.02
2022-08-19T05:47:03.190Z,17.06
2022-08-19T05:48:03.112Z,17.08
2022-08-19T05:49:03.246Z,17.11
2022-08-19T05:50:05.121Z,17.13
2022-08-19T05:51:02.665Z,17.14
2022-08-19T05:52:02.923Z,17.16
2022-08-19T05:53:03.093Z,17.18
2022-08-19T05:54:02.814Z,17.22
2022-08-19T05:55:02.980Z,17.25
2022-08-19T05:56:03.115Z,17.31
2022-08-19T05:57:03.244Z,17.36
2022-08-19T05:58:03.068Z,17.40
2022-08-19T05:59:03.205Z,17.45
2022-08-19T06:00:03.464Z,17.50
2022-08-19T06:01:03.043Z,17.53
2022-08-19T06:02:02.991Z,17.56
2022-08-19T06:03:03.232Z,17.59
2022-08-19T06:04:03.331Z,17.61
2022-08-19T06:05:03.006Z,17.64
2022-08-19T06:06:02.791Z,17.69
2022-08-19T06:07:12.106Z,17.73
2022-08-19T06:08:02.858Z,17.78
2022-08-19T06:09:02.998Z,17.83
2022-08-19T06:10:02.852Z,17.88
2022-08-19T06:11:02.911Z,17.93
2022-08-19T06:12:03.027Z,17.96
2022-08-19T06:13:03.164Z,18.02
2022-08-19T06:14:02.811Z,18.05
2022-08-19T06:15:02.946Z,18.10
2022-08-19T06:16:03.061Z,18.16
2022-08-19T06:17:06.835Z,18.20
2022-08-19T06:18:03.395Z,18.24
2022-08-19T06:19:03.332Z,18.27
2022-08-19T06:20:03.471Z,18.31
2022-08-19T06:21:03.456Z,18.34
2022-08-19T06:22:02.776Z,18.37
2022-08-19T06:23:02.953Z,18.40
2022-08-19T06:24:02.862Z,18.44
2022-08-19T06:25:02.306Z,18.49
2022-08-19T06:26:02.429Z,18.53
2022-08-19T06:27:03.309Z,18.55
2022-08-19T06:28:18.653Z,18.57
2022-08-19T06:29:03.104Z,18.61
2022-08-19T06:30:03.243Z,18.64
2022-08-19T06:31:03.051Z,18.67
2022-08-19T06:32:02.915Z,18.71
2022-08-19T06:33:03.034Z,18.72
2022-08-19T06:34:02.498Z,18.76
2022-08-19T06:35:02.643Z,18.79
2022-08-19T06:36:03.078Z,18.83
2022-08-19T06:37:03.002Z,18.86
2022-08-19T06:38:03.103Z,18.89
2022-08-19T06:39:03.180Z,18.93
2022-08-19T06:40:03.089Z,18.97
2022-08-19T06:41:02.670Z,19.00
2022-08-19T06:42:03.491Z,19.03
2022-08-19T06:43:03.613Z,19.06
2022-08-19T06:44:03.476Z,19.09
2022-08-19T06:45:03.333Z,19.14
2022-08-19T06:46:03.139Z,19.18
2022-08-19T06:47:03.044Z,19.23
2022-08-19T06:48:02.971Z,19.25
2022-08-19T06:49:02.887Z,19.29
2022-08-19T06:50:03.507Z,19.33
2022-08-19T06:51:02.896Z,19.37
2022-08-19T06:52:03.109Z,19.41
2022-08-19T06:53:04.715Z,19.46
2022-08-19T06:54:02.614Z,19.51
2022-08-19T06:55:06.186Z,19.53
2022-08-19T06:56:02.637Z,19.59
2022-08-19T06:57:03.511Z,19.63
2022-08-19T06:58:03.691Z,19.69
2022-08-19T06:59:03.185Z,19.74
2022-08-19T07:00:03.168Z,19.81
2022-08-19T07:01:05.723Z,19.87
2022-08-19T07:02:03.178Z,19.94
2022-08-19T07:03:05.958Z,19.99
2022-08-19T07:04:03.330Z,20.04
2022-08-19T07:05:03.040Z,20.11
2022-08-19T07:06:03.326Z,20.16
2022-08-19T07:07:19.790Z,20.24
2022-08-19T07:08:05.000Z,20.32
2022-08-19T07:09:02.676Z,20.33
2022-08-19T07:10:06.123Z,20.38
2022-08-19T07:11:02.319Z,20.43
2022-08-19T07:12:03.342Z,20.50
2022-08-19T07:13:03.272Z,20.59
2022-08-19T07:14:03.262Z,20.66
2022-08-19T07:15:02.918Z,20.72
2022-08-19T07:16:05.750Z,20.80
2022-08-19T07:17:02.088Z,20.88
2022-08-19T07:18:02.348Z,20.95
2022-08-19T07:19:11.544Z,21.03
2022-08-19T07:20:06.810Z,21.10
2022-08-19T07:21:02.498Z,21.17
2022-08-19T07:22:02.407Z,21.21
2022-08-19T07:23:02.408Z,21.24
2022-08-19T07:24:04.152Z,21.29
2022-08-19T07:25:02.226Z,21.36
2022-08-19T07:27:02.884Z,21.51
2022-08-19T07:28:02.886Z,21.60
2022-08-19T07:29:02.321Z,21.69
2022-08-19T07:30:02.296Z,21.80
2022-08-19T07:31:02.353Z,21.88
2022-08-19T07:32:03.212Z,21.95
2022-08-19T07:33:03.359Z,22.04
2022-08-19T07:34:02.612Z,22.13
2022-08-19T07:35:03.116Z,22.22
2022-08-19T07:36:02.948Z,22.31
2022-08-19T07:37:02.477Z,22.40
2022-08-19T07:38:02.774Z,22.48
2022-08-19T07:39:02.406Z,22.56
2022-08-19T07:40:02.769Z,22.63
2022-08-19T07:41:02.292Z,22.72
2022-08-19T07:42:02.910Z,22.80
2022-08-19T07:43:03.113Z,22.89
2022-08-19T07:44:03.077Z,22.99
2022-08-19T07:45:03.371Z,23.09
2022-08-19T07:46:03.029Z,23.18
2022-08-19T07:47:03.026Z,23.27
2022-08-19T07:48:03.944Z,23.35
2022-08-19T07:49:03.206Z,23.45
2022-08-19T07:50:03.130Z,23.55
2022-08-19T07:51:03.401Z,23.64
2022-08-19T07:52:02.331Z,23.70
2022-08-19T07:53:02.537Z,23.78
2022-08-19T07:54:02.627Z,23.84
2022-08-19T07:55:02.832Z,23.88
2022-08-19T07:56:02.742Z,23.94
2022-08-19T07:57:02.642Z,24.01
2022-08-19T07:58:03.168Z,24.10
2022-08-19T07:59:03.016Z,24.16
2022-08-19T08:00:02.796Z,24.23
2022-08-19T08:01:03.116Z,24.23
2022-08-19T08:02:02.410Z,24.28
2022-08-19T08:03:01.928Z,24.31
2022-08-19T08:04:02.045Z,24.27
2022-08-19T08:05:02.369Z,24.31
2022-08-19T08:06:01.847Z,24.37
2022-08-19T08:07:02.512Z,24.43
2022-08-19T08:08:02.735Z,24.51
2022-08-19T08:09:02.741Z,24.55
2022-08-19T08:10:03.564Z,24.60
2022-08-19T08:11:02.544Z,24.63
2022-08-19T08:12:04.994Z,24.70
2022-08-19T08:13:09.538Z,24.75
2022-08-19T08:14:04.513Z,24.80
2022-08-19T08:15:01.759Z,24.85
2022-08-19T08:16:01.847Z,24.90
2022-08-19T08:17:02.146Z,24.96
2022-08-19T08:18:02.286Z,25.02
2022-08-19T08:19:02.098Z,25.08
2022-08-19T08:20:02.239Z,25.13
2022-08-19T08:21:02.476Z,25.15
2022-08-19T08:22:02.549Z,25.25
2022-08-19T08:23:02.624Z,25.27
2022-08-19T08:24:02.914Z,25.34
2022-08-19T08:25:02.471Z,25.36
2022-08-19T08:26:02.800Z,25.41
2022-08-19T08:27:02.286Z,25.45
2022-08-19T08:28:02.242Z,25.50
2022-08-19T08:29:02.564Z,25.56
2022-08-19T08:30:02.991Z,25.60
2022-08-19T08:31:02.393Z,25.63
2022-08-19T08:32:02.764Z,25.62
2022-08-19T08:33:02.837Z,25.63
2022-08-19T08:34:02.705Z,25.65
2022-08-19T08:35:02.924Z,25.67
2022-08-19T08:36:03.980Z,25.70
2022-08-19T08:37:02.415Z,25.74
2022-08-19T08:38:02.576Z,25.75
2022-08-19T08:39:02.674Z,25.77
2022-08-19T08:40:02.360Z,25.79
2022-08-19T08:41:02.554Z,25.82
2022-08-19T08:42:02.605Z,25.84
2022-08-19T08:44:02.549Z,25.90
2022-08-19T08:45:02.851Z,25.97
2022-08-19T08:46:02.970Z,26.01
2022-08-19T08:47:02.939Z,26.08
2022-08-19T08:48:02.924Z,26.16
2022-08-19T08:49:02.906Z,26.20
2022-08-19T08:50:02.809Z,26.25
2022-08-19T08:51:03.049Z,26.27
2022-08-19T08:52:03.139Z,26.29
2022-08-19T08:53:02.913Z,26.27
2022-08-19T08:54:03.530Z,26.27
2022-08-19T08:55:03.129Z,26.31
2022-08-19T08:56:03.458Z,26.30
2022-08-19T08:57:02.367Z,26.29
2022-08-19T08:58:02.896Z,26.29
2022-08-19T08:59:02.076Z,26.35
2022-08-19T09:00:02.502Z,26.40
2022-08-19T09:01:02.202Z,26.41
2022-08-19T09:02:02.804Z,26.42
2022-08-19T09:03:02.957Z,26.46
2022-08-19T09:04:03.883Z,26.53
2022-08-19T09:05:03.140Z,26.60
2022-08-19T09:06:03.037Z,26.69
2022-08-19T09:07:03.394Z,26.76
2022-08-19T09:08:03.596Z,26.82
2022-08-19T09:09:03.631Z,26.88
2022-08-19T09:10:03.452Z,26.91
2022-08-19T09:11:03.497Z,26.97
2022-08-19T09:12:03.414Z,27.05
2022-08-19T09:13:03.748Z,27.12
2022-08-19T09:14:03.269Z,27.20
2022-08-19T09:15:03.424Z,27.24
2022-08-19T09:16:03.533Z,27.29
2022-08-19T09:17:03.210Z,27.30
2022-08-19T09:18:02.906Z,27.30
2022-08-19T09:19:03.307Z,27.28
2022-08-19T09:20:03.127Z,27.28
2022-08-19T09:21:03.355Z,27.23
2022-08-19T09:22:03.497Z,27.18
2022-08-19T09:23:03.749Z,27.10
2022-08-19T09:24:03.635Z,27.11
2022-08-19T09:25:03.627Z,27.08
2022-08-19T09:26:03.800Z,27.08
2022-08-19T09:27:07.980Z,27.07
2022-08-19T09:28:05.695Z,27.09
2022-08-19T09:29:02.925Z,27.09
2022-08-19T09:30:03.105Z,27.07
2022-08-19T09:31:03.356Z,27.09
2022-08-19T09:32:03.654Z,27.11
2022-08-19T09:33:03.679Z,27.12
2022-08-19T09:34:03.286Z,27.13
2022-08-19T09:35:03.599Z,27.16
2022-08-19T09:36:03.598Z,27.16
2022-08-19T09:37:03.776Z,27.15
2022-08-19T09:38:03.632Z,27.13
2022-08-19T09:39:03.549Z,27.15
2022-08-19T09:40:03.687Z,27.18
2022-08-19T09:41:03.631Z,27.19
2022-08-19T09:42:03.833Z,27.22
2022-08-19T09:43:10.012Z,27.24
2022-08-19T09:44:03.847Z,27.26
2022-08-19T09:45:05.035Z,27.25
2022-08-19T09:46:03.693Z,27.20
2022-08-19T09:47:03.406Z,27.21
2022-08-19T09:48:03.217Z,27.21
2022-08-19T09:49:06.331Z,27.25
2022-08-19T09:50:03.364Z,27.31
2022-08-19T09:51:03.579Z,27.35
2022-08-19T09:52:03.440Z,27.40
2022-08-19T09:53:03.482Z,27.44
2022-08-19T09:54:04.515Z,27.51
2022-08-19T09:55:07.092Z,27.55
2022-08-19T09:56:04.101Z,27.59
2022-08-19T09:57:05.112Z,27.65
2022-08-19T09:58:03.750Z,27.63
2022-08-19T09:59:04.092Z,27.55
2022-08-19T10:00:04.129Z,27.52
2022-08-19T10:01:04.349Z,27.54
2022-08-19T10:02:03.598Z,27.55
2022-08-19T10:03:03.482Z,27.59
2022-08-19T10:04:07.544Z,27.63
2022-08-19T10:05:02.885Z,27.67
2022-08-19T10:06:02.950Z,27.65
2022-08-19T10:07:03.365Z,27.64
2022-08-19T10:08:02.895Z,27.59
2022-08-19T10:09:02.886Z,27.62
2022-08-19T10:10:03.024Z,27.63
2022-08-19T10:11:27.406Z,27.63
2022-08-19T10:12:03.018Z,27.64
2022-08-19T10:13:02.614Z,27.62
2022-08-19T10:14:02.476Z,27.59
2022-08-19T10:15:02.975Z,27.51
2022-08-19T10:16:02.849Z,27.48
2022-08-19T10:17:17.506Z,27.46
2022-08-19T10:18:02.771Z,27.41
2022-08-19T10:19:03.675Z,27.40
2022-08-19T10:20:03.344Z,27.43
2022-08-19T10:21:03.242Z,27.49
2022-08-19T10:22:02.915Z,27.54
2022-08-19T10:23:02.769Z,27.52
2022-08-19T10:24:02.978Z,27.58
2022-08-19T10:25:02.673Z,27.63
2022-08-19T10:26:02.790Z,27.66
2022-08-19T10:27:03.545Z,27.68
2022-08-19T10:28:03.113Z,27.74
2022-08-19T10:29:03.610Z,27.76
2022-08-19T10:30:03.354Z,27.77
2022-08-19T10:31:03.225Z,27.78
2022-08-19T10:32:03.242Z,27.80
2022-08-19T10:33:08.527Z,27.81
2022-08-19T10:34:03.176Z,27.82
2022-08-19T10:35:02.776Z,27.83
2022-08-19T10:36:02.837Z,27.88
2022-08-19T10:37:03.101Z,27.94
2022-08-19T10:38:03.864Z,27.97
2022-08-19T10:39:03.726Z,28.00
2022-08-19T10:40:03.665Z,28.04
2022-08-19T10:41:03.168Z,28.08
2022-08-19T10:42:03.314Z,28.12
2022-08-19T10:43:02.728Z,28.04
2022-08-19T10:44:03.998Z,28.06
2022-08-19T10:45:02.600Z,28.05
2022-08-19T10:46:02.787Z,28.07
2022-08-19T10:47:02.801Z,28.07
2022-08-19T10:48:03.319Z,28.10
2022-08-19T10:49:03.034Z,28.10
2022-08-19T10:50:03.535Z,28.12
2022-08-19T10:51:03.098Z,28.12
2022-08-19T10:52:03.131Z,28.17
2022-08-19T10:53:03.384Z,28.21
2022-08-19T10:54:03.858Z,28.19
2022-08-19T10:55:05.256Z,28.23
2022-08-19T10:56:03.527Z,28.27
2022-08-19T10:57:03.676Z,28.32
2022-08-19T10:58:03.209Z,28.35
2022-08-19T10:59:03.168Z,28.43
2022-08-19T11:00:03.272Z,28.49
2022-08-19T11:01:03.599Z,28.58
2022-08-19T11:02:03.463Z,28.69
2022-08-19T11:03:02.656Z,28.78
2022-08-19T11:04:02.815Z,28.83
2022-08-19T11:05:09.068Z,28.85
2022-08-19T11:06:02.606Z,28.89
2022-08-19T11:07:02.837Z,28.90
2022-08-19T11:08:02.953Z,28.93
2022-08-19T11:09:02.753Z,28.97
2022-08-19T11:10:02.907Z,29.00
2022-08-19T11:11:02.481Z,29.05
2022-08-19T11:12:04.737Z,29.09
2022-08-19T11:13:02.275Z,29.04
2022-08-19T11:14:02.413Z,29.02
2022-08-19T11:15:02.312Z,28.98
2022-08-19T11:16:07.094Z,28.98
2022-08-19T11:17:02.743Z,29.00
2022-08-19T11:18:02.697Z,29.03
2022-08-19T11:19:02.886Z,29.01
2022-08-19T11:20:03.068Z,28.99
2022-08-19T11:21:02.603Z,28.97
2022-08-19T11:22:02.557Z,28.96
2022-08-19T11:23:03.550Z,28.94
2022-08-19T11:24:03.382Z,28.92
2022-08-19T11:25:03.575Z,28.83
2022-08-19T11:26:03.403Z,28.88
2022-08-19T11:27:03.234Z,28.88
2022-08-19T11:28:03.025Z,28.90
2022-08-19T11:29:02.872Z,28.91
2022-08-19T11:30:02.979Z,28.93
2022-08-19T11:31:03.065Z,28.93
2022-08-19T11:32:02.829Z,28.92
2022-08-19T11:33:03.807Z,28.93
2022-08-19T11:34:03.689Z,28.92
2022-08-19T11:35:03.668Z,28.93
2022-08-19T11:36:03.502Z,28.97
2022-08-19T11:37:03.637Z,28.94
2022-08-19T11:38:05.457Z,28.95
2022-08-19T11:39:03.703Z,28.86
2022-08-19T11:40:03.960Z,28.83
2022-08-19T11:41:03.276Z,28.82
2022-08-19T11:42:03.502Z,28.85
2022-08-19T11:43:03.301Z,28.83
2022-08-19T11:44:02.969Z,28.81
2022-08-19T11:45:03.270Z,28.81
2022-08-19T11:46:02.974Z,28.80
2022-08-19T11:47:09.069Z,28.80
2022-08-19T11:48:03.140Z,28.85
2022-08-19T11:49:03.407Z,28.90
2022-08-19T11:50:03.272Z,28.86
2022-08-19T11:51:03.473Z,28.91
2022-08-19T11:52:03.305Z,28.95
2022-08-19T11:53:03.198Z,29.00
2022-08-19T11:54:03.071Z,29.01
2022-08-19T11:55:02.574Z,29.00
2022-08-19T11:56:02.698Z,28.92
2022-08-19T11:57:02.786Z,28.94
2022-08-19T11:58:03.619Z,28.97
2022-08-19T11:59:03.182Z,29.04
2022-08-19T12:00:03.243Z,29.10
2022-08-19T12:01:03.544Z,29.17
2022-08-19T12:02:03.177Z,29.20
2022-08-19T12:03:02.885Z,29.26
2022-08-19T12:04:03.093Z,29.33
2022-08-19T12:05:02.848Z,29.40
2022-08-19T12:06:02.834Z,29.40
2022-08-19T12:07:03.066Z,29.47
2022-08-19T12:08:03.130Z,29.52
2022-08-19T12:09:03.028Z,29.62
2022-08-19T12:10:03.621Z,29.73
2022-08-19T12:11:03.636Z,29.81
2022-08-19T12:12:03.471Z,29.91
2022-08-19T12:13:02.752Z,30.00
2022-08-19T12:14:02.892Z,30.10
2022-08-19T12:15:03.145Z,30.15
2022-08-19T12:16:03.303Z,30.27
2022-08-19T12:17:03.229Z,30.36
2022-08-19T12:18:03.087Z,30.43
2022-08-19T12:19:03.278Z,30.47
2022-08-19T12:20:03.564Z,30.53
2022-08-19T12:21:03.652Z,30.61
2022-08-19T12:22:03.155Z,30.68
2022-08-19T12:23:02.449Z,30.72
2022-08-19T12:24:02.769Z,30.69
2022-08-19T12:25:02.823Z,30.67
2022-08-19T12:26:02.334Z,30.65
2022-08-19T12:27:03.147Z,30.64
2022-08-19T12:28:03.020Z,30.55
2022-08-19T12:29:02.692Z,30.51
2022-08-19T12:30:02.735Z,30.39
2022-08-19T12:31:02.732Z,30.34
2022-08-19T12:32:04.091Z,30.30
2022-08-19T12:33:03.307Z,30.24
2022-08-19T12:34:03.430Z,30.16
2022-08-19T12:35:03.019Z,30.14
2022-08-19T12:36:03.123Z,30.10
2022-08-19T12:37:03.350Z,30.10
2022-08-19T12:38:02.982Z,30.09
2022-08-19T12:39:02.831Z,30.04
2022-08-19T12:40:02.730Z,30.04
2022-08-19T12:41:02.876Z,30.00
2022-08-19T12:42:02.987Z,30.03
2022-08-19T12:43:03.098Z,30.03
2022-08-19T12:44:03.210Z,30.00
2022-08-19T12:45:03.369Z,29.99
2022-08-19T12:46:03.303Z,29.98
2022-08-19T12:47:03.188Z,29.96
2022-08-19T12:48:03.607Z,29.96
2022-08-19T12:49:05.134Z,29.95
2022-08-19T12:50:06.929Z,29.99
2022-08-19T12:51:03.543Z,30.00
2022-08-19T12:52:03.837Z,29.96
2022-08-19T12:53:03.188Z,29.95
2022-08-19T12:54:03.117Z,29.99